CET54K KFLL-KEYW
Flight info
| Callsign | CET54K |
|---|---|
| Flight time | 0h 33m |
| Altitude | 24000 |
| Route | MAYNR3 MAYNR FNTSY FNTSY1 |
| Aircraft | E195/M-SDE3GILORVW/S |
Departure
| Time | 2026-05-05 19:39 |
|---|---|
| Airport | Fort Lauderdale Hollywood International Airport (KFLL) |
Arrival
| Time | 2026-05-05 20:12 |
|---|---|
| Airport | Key West International Airport (KEYW) |
| Time | Latitude | Longitude | Altitude | Speed | Heading |
|---|---|---|---|---|---|
| 2026-05-05 19:05 | 26.07339 | -80.14120 | 15 ft | 0 kts | 109° |
| 2026-05-05 19:26 | 26.07345 | -80.14142 | 16 ft | 4 kts | 109° |
| 2026-05-05 19:26 | 26.07352 | -80.14164 | 16 ft | 4 kts | 114° |
| 2026-05-05 19:26 | 26.07366 | -80.14187 | 18 ft | 4 kts | 158° |
| 2026-05-05 19:26 | 26.07388 | -80.14191 | 15 ft | 4 kts | 169° |
| 2026-05-05 19:27 | 26.07410 | -80.14203 | 15 ft | 4 kts | 132° |
| 2026-05-05 19:27 | 26.07429 | -80.14217 | 17 ft | 4 kts | 183° |
| 2026-05-05 19:27 | 26.07449 | -80.14211 | 16 ft | 4 kts | 257° |
| 2026-05-05 19:27 | 26.07446 | -80.14192 | 19 ft | 4 kts | 346° |
| 2026-05-05 19:28 | 26.07421 | -80.14190 | 18 ft | 2 kts | 0° |
| 2026-05-05 19:28 | 26.07419 | -80.14190 | 17 ft | 3 kts | 0° |
| 2026-05-05 19:30 | 26.07421 | -80.14191 | 18 ft | 1 kts | 0° |
| 2026-05-05 19:30 | 26.07426 | -80.14191 | 15 ft | 0 kts | 359° |
| 2026-05-05 19:31 | 26.07434 | -80.14191 | 15 ft | 2 kts | 0° |
| 2026-05-05 19:31 | 26.07453 | -80.14192 | 15 ft | 4 kts | 349° |
| 2026-05-05 19:31 | 26.07477 | -80.14215 | 16 ft | 5 kts | 303° |
| 2026-05-05 19:31 | 26.07485 | -80.14263 | 15 ft | 8 kts | 274° |
| 2026-05-05 19:32 | 26.07487 | -80.14331 | 15 ft | 10 kts | 271° |
| 2026-05-05 19:32 | 26.07487 | -80.14416 | 15 ft | 12 kts | 270° |
| 2026-05-05 19:32 | 26.07513 | -80.14503 | 15 ft | 13 kts | 328° |
| 2026-05-05 19:32 | 26.07557 | -80.14581 | 16 ft | 14 kts | 274° |
| 2026-05-05 19:33 | 26.07560 | -80.14695 | 15 ft | 16 kts | 270° |
| 2026-05-05 19:33 | 26.07560 | -80.14825 | 15 ft | 18 kts | 270° |
| 2026-05-05 19:33 | 26.07563 | -80.14973 | 15 ft | 20 kts | 269° |
| 2026-05-05 19:33 | 26.07553 | -80.15104 | 14 ft | 16 kts | 236° |
| 2026-05-05 19:34 | 26.07442 | -80.15125 | 14 ft | 18 kts | 180° |
| 2026-05-05 19:34 | 26.07313 | -80.15126 | 14 ft | 19 kts | 180° |
| 2026-05-05 19:34 | 26.07172 | -80.15128 | 14 ft | 21 kts | 181° |
| 2026-05-05 19:35 | 26.06859 | -80.15129 | 14 ft | 23 kts | 180° |
| 2026-05-05 19:35 | 26.06734 | -80.15133 | 17 ft | 12 kts | 188° |
| 2026-05-05 19:35 | 26.06696 | -80.15194 | 21 ft | 10 kts | 261° |
| 2026-05-05 19:35 | 26.06694 | -80.15288 | 15 ft | 16 kts | 271° |
| 2026-05-05 19:36 | 26.06697 | -80.15421 | 15 ft | 18 kts | 271° |
| 2026-05-05 19:36 | 26.06697 | -80.15570 | 15 ft | 20 kts | 270° |
| 2026-05-05 19:36 | 26.06698 | -80.15723 | 15 ft | 17 kts | 271° |
| 2026-05-05 19:36 | 26.06685 | -80.15808 | 16 ft | 6 kts | 229° |
| 2026-05-05 19:37 | 26.06677 | -80.15815 | 16 ft | 1 kts | 213° |
| 2026-05-05 19:37 | 26.06670 | -80.15818 | 15 ft | 2 kts | 202° |
| 2026-05-05 19:37 | 26.06650 | -80.15822 | 15 ft | 5 kts | 185° |
| 2026-05-05 19:37 | 26.06607 | -80.15817 | 16 ft | 7 kts | 162° |
| 2026-05-05 19:38 | 26.06589 | -80.15769 | 18 ft | 8 kts | 90° |
| 2026-05-05 19:38 | 26.06588 | -80.15644 | 21 ft | 41 kts | 90° |
| 2026-05-05 19:38 | 26.06586 | -80.15030 | 18 ft | 116 kts | 90° |
| 2026-05-05 19:38 | 26.06572 | -80.13940 | 367 ft | 149 kts | 91° |
| 2026-05-05 19:39 | 26.06524 | -80.12751 | 1313 ft | 155 kts | 89° |
| 2026-05-05 19:39 | 26.06474 | -80.11550 | 2363 ft | 165 kts | 92° |
| 2026-05-05 19:39 | 26.06458 | -80.10333 | 3031 ft | 157 kts | 85° |
| 2026-05-05 19:39 | 26.06536 | -80.09110 | 3722 ft | 160 kts | 84° |
| 2026-05-05 19:40 | 26.06600 | -80.07858 | 4416 ft | 162 kts | 86° |
| 2026-05-05 19:40 | 26.06632 | -80.06609 | 4948 ft | 165 kts | 89° |
| 2026-05-05 19:40 | 26.06651 | -80.05321 | 5507 ft | 167 kts | 88° |
| 2026-05-05 19:40 | 26.06666 | -80.04027 | 6128 ft | 168 kts | 87° |
| 2026-05-05 19:41 | 26.06685 | -80.02733 | 6724 ft | 167 kts | 88° |
| 2026-05-05 19:41 | 26.06701 | -80.01441 | 7266 ft | 166 kts | 90° |
| 2026-05-05 19:41 | 26.06393 | -80.00214 | 7706 ft | 168 kts | 130° |
| 2026-05-05 19:41 | 26.05407 | -79.99498 | 7947 ft | 176 kts | 178° |
| 2026-05-05 19:42 | 26.04270 | -79.99794 | 8393 ft | 164 kts | 224° |
| 2026-05-05 19:42 | 26.03551 | -80.00761 | 8954 ft | 166 kts | 238° |
| 2026-05-05 19:42 | 26.02847 | -80.01849 | 9403 ft | 182 kts | 237° |
| 2026-05-05 19:42 | 26.02105 | -80.03056 | 9907 ft | 197 kts | 240° |
| 2026-05-05 19:43 | 26.01351 | -80.04389 | 10389 ft | 212 kts | 240° |
| 2026-05-05 19:43 | 26.00545 | -80.05863 | 10836 ft | 236 kts | 242° |
| 2026-05-05 19:43 | 25.99574 | -80.07492 | 11142 ft | 268 kts | 236° |
| 2026-05-05 19:43 | 25.98212 | -80.09061 | 11586 ft | 298 kts | 221° |
| 2026-05-05 19:44 | 25.96333 | -80.10247 | 12168 ft | 322 kts | 207° |
| 2026-05-05 19:44 | 25.94226 | -80.11168 | 13135 ft | 329 kts | 205° |
| 2026-05-05 19:44 | 25.92058 | -80.12032 | 14171 ft | 333 kts | 204° |
| 2026-05-05 19:44 | 25.89852 | -80.12875 | 15169 ft | 338 kts | 203° |
| 2026-05-05 19:45 | 25.87597 | -80.13727 | 16079 ft | 346 kts | 204° |
| 2026-05-05 19:45 | 25.85300 | -80.14611 | 16948 ft | 353 kts | 204° |
| 2026-05-05 19:45 | 25.82956 | -80.15532 | 17786 ft | 361 kts | 205° |
| 2026-05-05 19:45 | 25.80576 | -80.16500 | 18564 ft | 367 kts | 206° |
| 2026-05-05 19:46 | 25.78172 | -80.17506 | 19301 ft | 371 kts | 206° |
| 2026-05-05 19:46 | 25.75751 | -80.18528 | 20059 ft | 374 kts | 206° |
| 2026-05-05 19:46 | 25.73347 | -80.19552 | 20787 ft | 377 kts | 206° |
| 2026-05-05 19:46 | 25.70878 | -80.20598 | 21531 ft | 381 kts | 207° |
| 2026-05-05 19:47 | 25.68402 | -80.21679 | 22236 ft | 385 kts | 207° |
| 2026-05-05 19:47 | 25.65909 | -80.22797 | 22917 ft | 388 kts | 208° |
| 2026-05-05 19:47 | 25.63402 | -80.23952 | 23576 ft | 392 kts | 208° |
| 2026-05-05 19:47 | 25.60881 | -80.25133 | 23983 ft | 398 kts | 209° |
| 2026-05-05 19:48 | 25.58395 | -80.26330 | 24000 ft | 380 kts | 210° |
| 2026-05-05 19:48 | 25.56054 | -80.27506 | 23994 ft | 360 kts | 211° |
| 2026-05-05 19:48 | 25.53826 | -80.28635 | 23991 ft | 344 kts | 211° |
| 2026-05-05 19:48 | 25.51675 | -80.29731 | 23998 ft | 339 kts | 211° |
| 2026-05-05 19:49 | 25.49518 | -80.30835 | 24011 ft | 343 kts | 211° |
| 2026-05-05 19:49 | 25.48081 | -80.31568 | 24017 ft | 345 kts | 211° |
| 2026-05-05 19:49 | 25.45153 | -80.33054 | 24042 ft | 347 kts | 211° |
| 2026-05-05 19:49 | 25.42960 | -80.34167 | 24047 ft | 347 kts | 211° |
| 2026-05-05 19:50 | 25.40765 | -80.35279 | 24047 ft | 347 kts | 211° |
| 2026-05-05 19:50 | 25.38571 | -80.36391 | 24051 ft | 347 kts | 211° |
| 2026-05-05 19:50 | 25.36381 | -80.37502 | 24047 ft | 347 kts | 211° |
| 2026-05-05 19:50 | 25.34187 | -80.38612 | 24046 ft | 347 kts | 211° |
| 2026-05-05 19:51 | 25.31993 | -80.39724 | 24031 ft | 347 kts | 211° |
| 2026-05-05 19:51 | 25.29801 | -80.40832 | 24025 ft | 346 kts | 211° |
| 2026-05-05 19:51 | 25.27611 | -80.41942 | 24021 ft | 346 kts | 211° |
| 2026-05-05 19:51 | 25.25420 | -80.43049 | 24018 ft | 346 kts | 211° |
| 2026-05-05 19:52 | 25.23234 | -80.44157 | 24023 ft | 345 kts | 212° |
| 2026-05-05 19:52 | 25.21001 | -80.45117 | 24007 ft | 343 kts | 201° |
| 2026-05-05 19:52 | 25.18731 | -80.45772 | 23749 ft | 336 kts | 202° |
| 2026-05-05 19:52 | 25.16481 | -80.46472 | 23352 ft | 336 kts | 202° |
| 2026-05-05 19:53 | 25.14206 | -80.47187 | 22901 ft | 343 kts | 202° |
| 2026-05-05 19:53 | 25.11896 | -80.47929 | 22467 ft | 349 kts | 202° |
| 2026-05-05 19:53 | 25.09550 | -80.48684 | 22048 ft | 353 kts | 202° |
| 2026-05-05 19:53 | 25.07186 | -80.49449 | 21633 ft | 355 kts | 202° |
| 2026-05-05 19:54 | 25.04807 | -80.50220 | 21224 ft | 357 kts | 202° |
| 2026-05-05 19:54 | 25.02417 | -80.50996 | 20799 ft | 363 kts | 202° |
| 2026-05-05 19:54 | 24.99915 | -80.51817 | 20410 ft | 381 kts | 201° |
| 2026-05-05 19:54 | 24.97355 | -80.52650 | 20020 ft | 385 kts | 201° |
| 2026-05-05 19:55 | 24.94775 | -80.53490 | 19627 ft | 388 kts | 201° |
| 2026-05-05 19:55 | 24.92186 | -80.54331 | 19244 ft | 388 kts | 201° |
| 2026-05-05 19:55 | 24.89595 | -80.55174 | 18856 ft | 388 kts | 201° |
| 2026-05-05 19:55 | 24.87010 | -80.56012 | 18479 ft | 386 kts | 201° |
| 2026-05-05 19:56 | 24.84439 | -80.56848 | 18064 ft | 384 kts | 200° |
| 2026-05-05 19:56 | 24.81998 | -80.57932 | 17635 ft | 374 kts | 214° |
| 2026-05-05 19:56 | 24.80045 | -80.59717 | 17188 ft | 360 kts | 235° |
| 2026-05-05 19:56 | 24.78832 | -80.62062 | 16771 ft | 349 kts | 253° |
| 2026-05-05 19:57 | 24.78407 | -80.64609 | 16360 ft | 341 kts | 269° |
| 2026-05-05 19:57 | 24.78370 | -80.66366 | 16085 ft | 339 kts | 271° |
| 2026-05-05 19:57 | 24.78298 | -80.69790 | 15591 ft | 336 kts | 270° |
| 2026-05-05 19:57 | 24.78239 | -80.72357 | 15231 ft | 335 kts | 270° |
| 2026-05-05 19:58 | 24.78173 | -80.74907 | 14885 ft | 333 kts | 269° |
| 2026-05-05 19:58 | 24.78104 | -80.77449 | 14540 ft | 331 kts | 269° |
| 2026-05-05 19:58 | 24.78028 | -80.79974 | 14191 ft | 330 kts | 268° |
| 2026-05-05 19:58 | 24.77941 | -80.82486 | 13855 ft | 328 kts | 268° |
| 2026-05-05 19:59 | 24.77847 | -80.84983 | 13474 ft | 326 kts | 268° |
| 2026-05-05 19:59 | 24.77744 | -80.87469 | 13088 ft | 324 kts | 268° |
| 2026-05-05 19:59 | 24.77632 | -80.89937 | 12718 ft | 322 kts | 267° |
| 2026-05-05 19:59 | 24.77512 | -80.92393 | 12356 ft | 321 kts | 267° |
| 2026-05-05 20:00 | 24.77387 | -80.94840 | 12005 ft | 320 kts | 267° |
| 2026-05-05 20:00 | 24.77253 | -80.97275 | 11667 ft | 318 kts | 267° |
| 2026-05-05 20:00 | 24.77115 | -80.99700 | 11339 ft | 317 kts | 266° |
| 2026-05-05 20:00 | 24.76866 | -81.02102 | 10995 ft | 316 kts | 255° |
| 2026-05-05 20:01 | 24.75929 | -81.04285 | 10673 ft | 317 kts | 240° |
| 2026-05-05 20:01 | 24.74707 | -81.06305 | 10356 ft | 316 kts | 238° |
| 2026-05-05 20:01 | 24.73527 | -81.08333 | 10016 ft | 313 kts | 239° |
| 2026-05-05 20:01 | 24.72377 | -81.10351 | 9666 ft | 310 kts | 239° |
| 2026-05-05 20:02 | 24.71238 | -81.12357 | 9315 ft | 309 kts | 240° |
| 2026-05-05 20:02 | 24.70108 | -81.14361 | 8963 ft | 308 kts | 240° |
| 2026-05-05 20:02 | 24.68985 | -81.16353 | 8606 ft | 303 kts | 240° |
| 2026-05-05 20:02 | 24.67893 | -81.18295 | 8260 ft | 294 kts | 240° |
| 2026-05-05 20:03 | 24.66832 | -81.20177 | 8039 ft | 282 kts | 240° |
| 2026-05-05 20:03 | 24.65849 | -81.21919 | 8532 ft | 255 kts | 240° |
| 2026-05-05 20:03 | 24.64874 | -81.23652 | 8769 ft | 272 kts | 240° |
| 2026-05-05 20:03 | 24.63792 | -81.25313 | 8561 ft | 266 kts | 230° |
| 2026-05-05 20:04 | 24.62534 | -81.26793 | 8280 ft | 264 kts | 230° |
| 2026-05-05 20:04 | 24.61309 | -81.28311 | 7906 ft | 267 kts | 231° |
| 2026-05-05 20:04 | 24.60072 | -81.29855 | 7531 ft | 271 kts | 231° |
| 2026-05-05 20:04 | 24.58830 | -81.31416 | 7154 ft | 272 kts | 231° |
| 2026-05-05 20:05 | 24.57587 | -81.32982 | 6772 ft | 272 kts | 231° |
| 2026-05-05 20:05 | 24.56438 | -81.34612 | 6363 ft | 269 kts | 243° |
| 2026-05-05 20:05 | 24.55973 | -81.36558 | 5933 ft | 265 kts | 269° |
| 2026-05-05 20:05 | 24.55975 | -81.38574 | 5519 ft | 264 kts | 270° |
| 2026-05-05 20:06 | 24.55940 | -81.40587 | 5113 ft | 263 kts | 269° |
| 2026-05-05 20:06 | 24.55916 | -81.42593 | 4705 ft | 262 kts | 270° |
| 2026-05-05 20:06 | 24.55900 | -81.44543 | 4658 ft | 248 kts | 270° |
| 2026-05-05 20:06 | 24.55882 | -81.46428 | 4373 ft | 249 kts | 270° |
| 2026-05-05 20:07 | 24.55868 | -81.48358 | 4001 ft | 256 kts | 270° |
| 2026-05-05 20:07 | 24.55852 | -81.50337 | 3589 ft | 261 kts | 270° |
| 2026-05-05 20:07 | 24.55837 | -81.52336 | 3183 ft | 262 kts | 270° |
| 2026-05-05 20:07 | 24.55820 | -81.54314 | 2768 ft | 263 kts | 270° |
| 2026-05-05 20:08 | 24.55804 | -81.56319 | 2343 ft | 263 kts | 270° |
| 2026-05-05 20:08 | 24.55786 | -81.58311 | 2015 ft | 258 kts | 270° |
| 2026-05-05 20:08 | 24.55769 | -81.60237 | 1687 ft | 245 kts | 270° |
| 2026-05-05 20:08 | 24.55757 | -81.61474 | 1579 ft | 233 kts | 270° |
| 2026-05-05 20:09 | 24.55739 | -81.63192 | 1446 ft | 218 kts | 270° |
| 2026-05-05 20:09 | 24.55716 | -81.65278 | 1265 ft | 193 kts | 270° |
| 2026-05-05 20:09 | 24.55704 | -81.66238 | 1164 ft | 179 kts | 271° |
| 2026-05-05 20:09 | 24.55720 | -81.67507 | 1198 ft | 150 kts | 277° |
| 2026-05-05 20:10 | 24.55764 | -81.68624 | 1152 ft | 146 kts | 267° |
| 2026-05-05 20:10 | 24.55653 | -81.69759 | 905 ft | 148 kts | 268° |
| 2026-05-05 20:10 | 24.55640 | -81.70828 | 815 ft | 137 kts | 275° |
| 2026-05-05 20:10 | 24.55660 | -81.71871 | 733 ft | 139 kts | 272° |
| 2026-05-05 20:11 | 24.55632 | -81.72947 | 502 ft | 140 kts | 272° |
| 2026-05-05 20:11 | 24.55626 | -81.74006 | 285 ft | 138 kts | 272° |
| 2026-05-05 20:11 | 24.55620 | -81.75045 | 72 ft | 138 kts | 273° |
| 2026-05-05 20:11 | 24.55614 | -81.76040 | 10 ft | 115 kts | 269° |
| 2026-05-05 20:12 | 24.55609 | -81.76562 | 9 ft | 35 kts | 270° |
| 2026-05-05 20:12 | 24.55524 | -81.76620 | 12 ft | 18 kts | 109° |
| 2026-05-05 20:12 | 24.55521 | -81.76479 | 10 ft | 19 kts | 89° |
| 2026-05-05 20:12 | 24.55523 | -81.76327 | 10 ft | 21 kts | 89° |
| 2026-05-05 20:13 | 24.55524 | -81.76173 | 10 ft | 20 kts | 90° |
| 2026-05-05 20:13 | 24.55526 | -81.76014 | 10 ft | 21 kts | 89° |
| 2026-05-05 20:13 | 24.55527 | -81.75852 | 11 ft | 21 kts | 90° |
| 2026-05-05 20:13 | 24.55528 | -81.75711 | 11 ft | 16 kts | 89° |
| 2026-05-05 20:14 | 24.55530 | -81.75624 | 11 ft | 6 kts | 89° |
| 2026-05-05 20:14 | 24.55505 | -81.75590 | 11 ft | 7 kts | 161° |
| 2026-05-05 20:14 | 24.55488 | -81.75543 | 11 ft | 8 kts | 90° |
| 2026-05-05 20:14 | 24.55489 | -81.75477 | 11 ft | 10 kts | 89° |
| 2026-05-05 20:15 | 24.55490 | -81.75410 | 11 ft | 7 kts | 88° |
| 2026-05-05 20:15 | 24.55460 | -81.75379 | 11 ft | 6 kts | 172° |
| 2026-05-05 20:15 | 24.55441 | -81.75378 | 12 ft | 0 kts | 178° |